Hovedside
METAR-TAF:

METAR-TAF

Lufthavner :

Suva, Fiji

breddegrad: 18-03S, lengdegrad: 178-34E, høyde over havet: 5 m

Gjeldene værobservasjon

Denne rapporten ble laget for 1 time og 15 minutter siden, klokken 02:00 UTC
Vind 4 kt fra Øst-nordøst
Temperatur 30°C
Luftfuktighet 70%
Trykk 1009 hPa
Sikt 10 km eller mer
Spredte skyer i en høyde av 2000 ft

METAR: NFNA 200200Z 06004KT 9999 SCT020 30/24 Q1009

Tid: 15:15 (03:15 UTC)

Varsel

Denne rapporten ble laget for 4 timer og 11 minutter siden, klokken 23:04 UTC
Varsel gyldig fra 20. klokken 00 UTC til 20. klokken 24 UTC
Vind 3 kt fra skiftende retning
Sikt 10 km eller mer
Spredte skyer i en høyde av 2000 ft
Brutte skyer i en høyde av 4000 ft
Sannsynlighet 30% :
Midlertidig
fra 20. klokken 15 UTC til 20. klokken 21 UTC
Sikt: 5000 m
Brutte skyer i en høyde av 1500 ft
regnbyger,

TAF: NFNA 192304Z 2000/2024 VRB03KT 9999 SCT020 BKN040 PROB30 TEMPO 2015/2021 5000 SHRA BKN015

Værobservasjoner og værvarsel for over 4000 flyplasser (METAR- og TAF-rapporter).

Tilgjengelige stasjoner er representert av de røde og gule prikkene på kartet.

Hold musepekeren over prikken for å se navnet på stasjonen.

Klikk så for å se værobservasjoner og -varsler.

For å forandre kartet kan du klikke på den grønne knappen med svart kryss for å zoome inn, på den grønne knappen med strek for å zoome ut, eller på de grønne pilene for å se tilstøtende kart.


METAR-TAF: